Time;durP1;ratioP1;P1;durP2;ratioP2;P2;SDS_P1;SDS_P2;PMS_P1;PMS_P2;Temp;Humidity;BMP_temperature;BMP_pressure;BME280_temperature;BME280_humidity;BME280_pressure;Samples;Min_cycle;Max_cycle;Signal;HPM_P1;HPM_P2
2021/07/13 00:02:01;;;;;;;10.68;7.32;;;;;;;19.78;88.53;99703.94;21235343;27;20050;-68
2021/07/13 00:12:03;;;;;;;9.82;6.85;;;;;;;19.87;88.75;99711.31;21236124;27;20051;-68
2021/07/13 00:22:05;;;;;;;10.65;7.53;;;;;;;19.49;87.89;99701.31;21233400;27;20054;-68
2021/07/13 00:32:07;;;;;;;13.25;7.60;;;;;;;19.70;89.17;99709.75;21231483;27;20039;-68
2021/07/13 00:42:17;;;;;;;12.57;8.43;;;;;;;19.73;88.94;99677.66;21231141;27;20043;-68
2021/07/13 00:52:19;;;;;;;10.82;7.85;;;;;;;19.67;89.50;99705.47;21230600;27;20076;-68
2021/07/13 01:02:21;;;;;;;11.68;7.47;;;;;;;19.64;89.52;99671.19;21229730;27;20558;-69
2021/07/13 01:12:34;;;;;;;12.88;8.88;;;;;;;19.50;90.29;99647.28;21229119;27;20043;-69
2021/07/13 01:22:47;;;;;;;10.53;8.37;;;;;;;19.48;90.34;99673.06;21231591;27;20039;-69
2021/07/13 01:32:56;;;;;;;12.63;8.07;;;;;;;19.64;90.93;99700.38;21224979;27;20031;-68
2021/07/13 01:42:59;;;;;;;12.85;9.20;;;;;;;19.61;90.19;99715.66;21229511;27;20411;-69
2021/07/13 01:53:03;;;;;;;12.77;10.18;;;;;;;19.44;90.53;99695.44;21227674;27;20108;-71
2021/07/13 02:03:06;;;;;;;11.43;8.97;;;;;;;19.39;90.73;99714.31;21227783;28;20047;-68
2021/07/13 02:13:11;;;;;;;11.63;8.60;;;;;;;19.48;90.83;99723.50;21228793;28;20054;-68
2021/07/13 02:23:13;;;;;;;14.35;9.63;;;;;;;19.39;90.04;99716.97;21227562;28;20054;-68
2021/07/13 02:33:20;;;;;;;12.70;9.07;;;;;;;19.44;90.70;99698.94;21225252;28;20038;-68
2021/07/13 02:43:22;;;;;;;14.38;9.52;;;;;;;19.44;90.28;99679.50;21223283;28;20047;-68
2021/07/13 02:53:27;;;;;;;13.23;9.20;;;;;;;19.43;90.41;99678.66;21226230;27;20047;-68
2021/07/13 03:03:28;;;;;;;15.15;10.18;;;;;;;19.26;90.34;99647.06;21240164;27;20039;-68
2021/07/13 03:13:31;;;;;;;11.85;8.07;;;;;;;19.18;90.95;99636.06;21240465;27;20043;-70
2021/07/13 03:23:38;;;;;;;11.40;8.80;;;;;;;19.40;90.66;99611.63;21239572;27;20484;-70
2021/07/13 03:33:41;;;;;;;12.90;9.63;;;;;;;19.33;90.41;99581.13;21236377;27;20047;-70
2021/07/13 03:43:43;;;;;;;13.25;10.82;;;;;;;19.18;90.90;99549.34;21236924;27;20039;-70
2021/07/13 03:53:45;;;;;;;20.35;15.20;;;;;;;19.17;90.90;99558.25;21236613;27;20058;-71
2021/07/13 04:03:47;;;;;;;18.10;13.57;;;;;;;19.28;91.79;99585.91;21234627;27;20039;-72
2021/07/13 04:13:49;;;;;;;20.13;15.23;;;;;;;19.29;91.69;99583.13;21234280;27;20049;-70
2021/07/13 04:23:51;;;;;;;18.40;14.30;;;;;;;19.23;91.97;99594.16;21214575;27;20046;-70
2021/07/13 04:33:53;;;;;;;18.50;13.35;;;;;;;19.22;92.03;99584.50;21232395;27;20031;-70
2021/07/13 04:43:55;;;;;;;17.70;12.27;;;;;;;19.06;91.84;99575.78;21231875;27;20491;-70
2021/07/13 04:53:57;;;;;;;17.75;14.35;;;;;;;19.00;91.91;99569.09;21231892;27;20509;-71
2021/07/13 05:03:59;;;;;;;20.10;13.50;;;;;;;18.85;92.27;99549.69;21229714;27;20050;-71
2021/07/13 05:14:02;;;;;;;18.58;13.45;;;;;;;19.05;92.26;99553.72;21229170;27;20046;-71
2021/07/13 05:24:04;;;;;;;16.02;11.40;;;;;;;19.01;91.65;99551.38;21228552;27;20048;-71
2021/07/13 05:34:05;;;;;;;13.57;10.73;;;;;;;19.05;92.15;99543.09;21227966;27;20061;-70
2021/07/13 05:44:07;;;;;;;14.00;10.05;;;;;;;19.18;91.87;99554.63;21229952;27;20035;-71
2021/07/13 05:54:09;;;;;;;14.35;9.15;;;;;;;19.22;90.99;99545.53;21228053;27;20481;-70
2021/07/13 06:04:11;;;;;;;10.43;7.88;;;;;;;19.38;91.11;99577.22;21226437;28;20105;-70
2021/07/13 06:14:13;;;;;;;11.30;8.30;;;;;;;19.52;90.28;99589.59;21226664;28;20481;-70
2021/07/13 06:24:14;;;;;;;9.23;7.40;;;;;;;19.39;90.41;99597.50;21225951;28;20047;-70
2021/07/13 06:34:16;;;;;;;12.00;7.82;;;;;;;19.21;90.29;99604.00;21233767;27;20031;-68
2021/07/13 06:44:18;;;;;;;10.00;7.93;;;;;;;19.13;90.63;99609.81;21241816;27;20043;-68
2021/07/13 06:54:20;;;;;;;11.15;8.50;;;;;;;18.92;91.03;99611.16;21240078;27;20035;-68
2021/07/13 07:04:22;;;;;;;12.30;8.55;;;;;;;18.91;90.46;99620.91;21239517;27;20393;-68
2021/07/13 07:14:24;;;;;;;13.95;8.77;;;;;;;18.72;90.11;99620.34;21244796;27;20050;-68
2021/07/13 07:24:25;;;;;;;11.68;7.88;;;;;;;18.80;90.26;99606.63;21244851;27;20123;-67
2021/07/13 07:34:27;;;;;;;12.23;8.88;;;;;;;18.70;90.85;99628.41;21243156;27;20092;-68
2021/07/13 07:44:29;;;;;;;13.27;6.72;;;;;;;18.47;91.39;99620.97;21242358;27;20047;-68
2021/07/13 07:54:31;;;;;;;7.95;4.80;;;;;;;18.39;91.04;99633.84;21241950;27;20096;-68
2021/07/13 08:04:34;;;;;;;5.80;4.07;;;;;;;18.60;89.87;99613.16;21240659;27;20447;-68
2021/07/13 08:14:36;;;;;;;6.75;4.60;;;;;;;18.68;90.73;99635.63;21240466;27;20532;-68
2021/07/13 08:24:39;;;;;;;5.25;3.78;;;;;;;18.58;89.07;99634.41;21239601;27;20074;-67
2021/07/13 08:34:40;;;;;;;5.35;3.40;;;;;;;18.76;89.19;99655.50;21237926;27;20092;-67
2021/07/13 08:44:43;;;;;;;5.70;3.10;;;;;;;18.79;89.08;99655.31;21236310;27;20072;-69
2021/07/13 08:54:45;;;;;;;3.00;1.55;;;;;;;18.44;88.17;99669.75;21231684;27;20096;-68
2021/07/13 09:04:47;;;;;;;1.48;0.50;;;;;;;17.84;87.03;99684.78;21235077;27;20040;-68
2021/07/13 09:15:05;;;;;;;0.65;0.20;;;;;;;17.22;87.91;99697.03;21235682;27;20051;-68
2021/07/13 09:25:44;;;;;;;0.80;0.50;;;;;;;17.05;88.02;99727.88;21234876;27;20097;-68
2021/07/13 09:36:15;;;;;;;3.17;0.65;;;;;;;16.66;88.58;99747.50;21234956;27;20039;-67
2021/07/13 09:46:46;;;;;;;1.52;0.60;;;;;;;16.49;88.75;99766.00;21234143;27;20104;-67
2021/07/13 09:56:48;;;;;;;1.35;0.90;;;;;;;16.42;88.19;99775.16;21232748;27;20051;-67
2021/07/13 10:06:52;;;;;;;1.65;0.88;;;;;;;16.09;89.02;99807.56;21238121;27;20565;-68
2021/07/13 10:16:56;;;;;;;1.70;0.67;;;;;;;16.21;88.31;99807.94;21249763;27;20089;-68
2021/07/13 10:26:59;;;;;;;1.20;0.57;;;;;;;16.15;88.30;99819.66;21248877;27;20055;-68
2021/07/13 10:37:32;;;;;;;0.77;0.40;;;;;;;16.22;87.87;99801.72;21248057;27;20043;-67
2021/07/13 10:47:35;;;;;;;0.90;0.43;;;;;;;16.06;88.84;99820.94;21249160;27;20194;-68
2021/07/13 10:57:37;;;;;;;1.02;0.38;;;;;;;16.16;88.32;99827.50;21246439;27;20046;-67
2021/07/13 11:07:39;;;;;;;1.08;0.40;;;;;;;16.62;87.40;99796.19;21246150;27;20051;-68
2021/07/13 11:17:40;;;;;;;2.58;0.45;;;;;;;17.27;84.21;99811.41;21245304;27;20069;-67
2021/07/13 11:27:42;;;;;;;1.48;0.68;;;;;;;16.98;83.48;99805.00;21244923;27;20039;-68
2021/07/13 11:37:44;;;;;;;2.20;0.73;;;;;;;16.55;85.90;99826.47;21242718;27;20039;-67
2021/07/13 11:47:46;;;;;;;1.40;0.55;;;;;;;16.31;86.53;99830.31;21243884;27;20039;-69
2021/07/13 11:57:50;;;;;;;2.47;0.98;;;;;;;16.62;87.12;99849.06;21243916;27;20035;-69
2021/07/13 12:07:52;;;;;;;1.80;0.80;;;;;;;17.31;85.47;99842.91;21242505;27;20093;-69
2021/07/13 12:17:54;;;;;;;2.17;0.85;;;;;;;17.92;83.09;99836.16;21241230;27;20035;-68
2021/07/13 12:28:12;;;;;;;2.50;1.17;;;;;;;17.15;83.89;99840.22;21237930;27;20150;-69
2021/07/13 12:38:14;;;;;;;2.72;1.00;;;;;;;17.21;84.66;99851.41;21236745;27;20148;-69
2021/07/13 12:48:28;;;;;;;2.38;1.17;;;;;;;17.34;84.73;99852.47;21238164;27;20373;-70
2021/07/13 12:58:30;;;;;;;3.67;1.10;;;;;;;17.49;84.24;99862.28;21235686;27;20814;-71
2021/07/13 13:08:32;;;;;;;2.85;1.20;;;;;;;17.27;84.30;99856.38;21217379;27;20435;-72
2021/07/13 13:18:33;;;;;;;4.30;1.73;;;;;;;17.36;84.63;99874.44;21234724;27;20093;-69
2021/07/13 13:28:37;;;;;;;2.90;1.30;;;;;;;17.54;83.93;99880.56;21235411;27;20179;-70
2021/07/13 13:38:43;;;;;;;2.90;1.37;;;;;;;17.79;83.80;99865.09;21232828;27;20092;-70
2021/07/13 13:48:45;;;;;;;2.85;1.58;;;;;;;17.98;81.65;99858.81;21231392;27;20073;-69
2021/07/13 13:58:47;;;;;;;3.83;1.10;;;;;;;18.66;77.63;99820.44;21232383;27;20035;-70
2021/07/13 14:08:49;;;;;;;4.13;1.20;;;;;;;18.19;79.68;99818.72;21232428;28;20108;-69
2021/07/13 14:18:51;;;;;;;2.10;1.10;;;;;;;18.40;79.02;99845.81;21233320;28;20050;-69
2021/07/13 14:28:53;;;;;;;1.95;0.93;;;;;;;18.56;78.25;99880.25;21233793;28;20476;-69
2021/07/13 14:38:55;;;;;;;2.22;1.10;;;;;;;18.58;79.07;99901.38;21231383;28;20047;-69
2021/07/13 14:48:56;;;;;;;1.95;1.08;;;;;;;17.93;77.55;99889.03;21230037;28;20062;-70
2021/07/13 14:58:58;;;;;;;1.58;0.82;;;;;;;17.79;77.54;99875.69;21244859;27;20100;-70
2021/07/13 15:09:00;;;;;;;2.58;1.10;;;;;;;18.40;76.71;99896.19;21246607;27;20035;-70
2021/07/13 15:19:02;;;;;;;2.42;1.00;;;;;;;18.71;76.91;99895.31;21245190;27;20043;-70
2021/07/13 15:29:04;;;;;;;3.20;1.73;;;;;;;18.71;76.87;99890.00;21243305;27;20501;-69
2021/07/13 15:39:06;;;;;;;2.03;1.02;;;;;;;19.20;73.58;99875.66;21241828;27;20047;-70
2021/07/13 15:49:08;;;;;;;1.42;0.60;;;;;;;19.98;70.22;99871.78;21242397;27;20046;-70
2021/07/13 15:59:10;;;;;;;2.42;0.85;;;;;;;19.86;70.48;99869.03;21240682;27;20043;-71
2021/07/13 16:09:12;;;;;;;2.55;1.20;;;;;;;19.56;73.02;99856.66;21239345;27;20038;-70
2021/07/13 16:19:14;;;;;;;2.63;1.00;;;;;;;19.20;71.85;99880.97;21240461;27;20039;-70
2021/07/13 16:29:16;;;;;;;4.47;1.10;;;;;;;18.99;74.20;99893.72;21234817;27;20116;-70
2021/07/13 16:39:18;;;;;;;2.78;1.17;;;;;;;18.70;74.34;99885.66;21238256;27;20031;-70
2021/07/13 16:49:20;;;;;;;2.38;1.38;;;;;;;18.95;74.70;99886.88;21237009;27;20100;-71
2021/07/13 16:59:22;;;;;;;2.97;1.55;;;;;;;19.39;73.40;99899.31;21237017;27;20039;-70
2021/07/13 17:09:24;;;;;;;3.85;1.90;;;;;;;19.45;70.79;99906.91;21234576;27;20093;-70
2021/07/13 17:19:26;;;;;;;3.13;1.48;;;;;;;18.92;73.36;99926.84;21232625;27;20405;-70
2021/07/13 17:29:28;;;;;;;3.40;1.50;;;;;;;19.11;73.70;99927.47;21232570;27;20066;-70
2021/07/13 17:39:30;;;;;;;3.97;1.55;;;;;;;19.38;71.85;99921.50;21234623;27;20054;-70
2021/07/13 17:49:33;;;;;;;8.90;1.83;;;;;;;19.14;70.02;99911.38;21231878;27;20046;-70
2021/07/13 17:59:35;;;;;;;3.95;1.88;;;;;;;19.26;68.27;99906.28;21233161;27;20116;-70
2021/07/13 18:09:37;;;;;;;3.33;1.67;;;;;;;18.78;70.47;99906.44;21230339;28;20043;-70
2021/07/13 18:19:38;;;;;;;3.30;1.60;;;;;;;18.70;70.12;99912.16;21233902;28;20051;-70
2021/07/13 18:29:40;;;;;;;4.15;1.77;;;;;;;18.33;71.64;99921.31;21238687;27;20416;-70
2021/07/13 18:39:42;;;;;;;4.53;2.03;;;;;;;18.21;72.22;99908.75;21247342;27;20122;-70
2021/07/13 18:49:44;;;;;;;4.47;2.15;;;;;;;17.95;74.78;99918.09;21245884;27;20050;-70
2021/07/13 18:59:45;;;;;;;6.90;2.80;;;;;;;17.74;75.83;99930.69;21241760;27;20097;-70
2021/07/13 19:09:47;;;;;;;5.57;3.15;;;;;;;17.48;77.81;99937.28;21243325;27;20043;-71
2021/07/13 19:19:49;;;;;;;6.63;3.05;;;;;;;17.19;78.36;99939.63;21245474;27;20043;-70
2021/07/13 19:29:51;;;;;;;6.35;3.10;;;;;;;16.97;80.80;99951.38;21242709;27;20047;-70
2021/07/13 19:39:52;;;;;;;4.70;2.85;;;;;;;16.76;81.38;99966.47;21241705;27;20039;-70
2021/07/13 19:49:54;;;;;;;4.65;2.72;;;;;;;16.51;83.13;99969.41;21241637;27;20089;-70
2021/07/13 19:59:56;;;;;;;6.75;3.50;;;;;;;16.31;83.74;99970.34;21241389;27;20047;-70
2021/07/13 20:09:58;;;;;;;8.00;3.17;;;;;;;16.09;84.32;99962.53;21239223;27;20047;-70
2021/07/13 20:19:59;;;;;;;7.60;3.22;;;;;;;15.99;84.35;99951.53;21237277;27;20503;-70
2021/07/13 20:30:01;;;;;;;6.18;3.03;;;;;;;15.85;85.28;99953.94;21236551;27;20043;-70
2021/07/13 20:40:04;;;;;;;5.85;3.17;;;;;;;15.71;84.70;99941.34;21234087;27;20035;-70
2021/07/13 20:50:07;;;;;;;5.35;3.30;;;;;;;15.52;85.10;99932.47;21236827;27;20096;-70
2021/07/13 21:00:10;;;;;;;6.63;3.47;;;;;;;15.38;85.20;99917.28;21235102;27;20096;-70
2021/07/13 21:10:12;;;;;;;7.13;3.35;;;;;;;15.41;85.02;99885.47;21236390;27;20039;-70
2021/07/13 21:20:14;;;;;;;7.00;3.25;;;;;;;15.24;85.45;99888.00;21215934;27;20035;-70
2021/07/13 21:30:17;;;;;;;6.35;3.05;;;;;;;15.10;85.46;99881.53;21230001;27;20047;-71
2021/07/13 21:40:18;;;;;;;8.00;3.63;;;;;;;15.10;86.24;99885.94;21225755;27;20046;-71
2021/07/13 21:50:21;;;;;;;7.35;3.92;;;;;;;15.04;86.42;99887.06;21232288;27;20565;-71
2021/07/13 22:00:23;;;;;;;7.90;3.92;;;;;;;14.90;87.32;99905.25;21237295;27;20432;-70
2021/07/13 22:10:24;;;;;;;8.88;4.70;;;;;;;14.84;87.07;99906.31;21255340;27;20043;-71
2021/07/13 22:20:27;;;;;;;8.60;4.00;;;;;;;14.74;86.45;99923.44;21255639;27;20043;-71
2021/07/13 22:30:29;;;;;;;5.15;3.40;;;;;;;14.55;87.86;99907.50;21254036;27;20455;-71
2021/07/13 22:40:31;;;;;;;7.43;4.20;;;;;;;14.45;87.50;99919.31;21254073;27;20039;-71
2021/07/13 22:50:32;;;;;;;9.73;4.38;;;;;;;14.42;87.35;99929.97;21255011;27;20112;-71
2021/07/13 23:00:34;;;;;;;7.30;4.28;;;;;;;14.31;88.04;99966.38;21254128;27;20450;-71
2021/07/13 23:10:36;;;;;;;7.53;4.07;;;;;;;14.28;87.93;99979.69;21252346;27;20081;-71
2021/07/13 23:20:38;;;;;;;7.05;4.68;;;;;;;14.43;88.16;99968.56;21239607;27;20043;-71
2021/07/13 23:30:40;;;;;;;6.70;3.78;;;;;;;14.44;87.11;99958.88;21238211;27;20073;-71
2021/07/13 23:40:42;;;;;;;10.95;4.35;;;;;;;14.62;87.28;99961.69;21238929;27;20047;-71
2021/07/13 23:50:44;;;;;;;6.70;4.40;;;;;;;14.63;87.45;99973.09;21220232;27;20043;-71
